createdAt,value
2022-11-05T00:00:42.183Z,0.00
2022-11-05T00:01:42.233Z,0.00
2022-11-05T00:02:42.164Z,0.00
2022-11-05T00:03:42.224Z,0.00
2022-11-05T00:04:42.182Z,0.00
2022-11-05T00:05:42.133Z,0.00
2022-11-05T00:06:42.121Z,0.00
2022-11-05T00:07:42.121Z,0.00
2022-11-05T00:08:42.099Z,0.00
2022-11-05T00:09:42.114Z,0.00
2022-11-05T00:10:42.076Z,0.00
2022-11-05T00:11:42.063Z,0.00
2022-11-05T00:12:42.055Z,0.00
2022-11-05T00:13:42.043Z,0.00
2022-11-05T00:14:42.043Z,0.00
2022-11-05T00:15:42.021Z,0.00
2022-11-05T00:16:42.011Z,0.00
2022-11-05T00:17:42.055Z,0.00
2022-11-05T00:18:41.992Z,0.00
2022-11-05T00:19:41.989Z,0.00
2022-11-05T00:20:41.986Z,0.00
2022-11-05T00:21:41.955Z,0.00
2022-11-05T00:22:41.949Z,0.00
2022-11-05T00:23:41.931Z,0.00
2022-11-05T00:24:41.948Z,0.00
2022-11-05T00:25:41.911Z,0.00
2022-11-05T00:26:41.904Z,0.00
2022-11-05T00:27:41.916Z,0.00
2022-11-05T00:28:41.892Z,0.00
2022-11-05T00:29:41.867Z,0.00
2022-11-05T00:30:41.864Z,0.00
2022-11-05T00:31:41.849Z,0.00
2022-11-05T00:32:41.836Z,0.00
2022-11-05T00:33:41.844Z,0.00
2022-11-05T00:34:41.817Z,0.00
2022-11-05T00:35:41.802Z,0.00
2022-11-05T00:36:41.834Z,0.00
2022-11-05T00:37:47.089Z,0.00
2022-11-05T00:38:42.790Z,0.00
2022-11-05T00:39:41.758Z,0.00
2022-11-05T00:40:41.824Z,0.00
2022-11-05T00:41:41.741Z,0.00
2022-11-05T00:42:41.727Z,0.00
2022-11-05T00:43:41.726Z,0.00
2022-11-05T00:44:41.708Z,0.00
2022-11-05T00:45:41.693Z,0.00
2022-11-05T00:46:41.685Z,0.00
2022-11-05T00:47:41.672Z,0.00
2022-11-05T00:48:41.672Z,0.00
2022-11-05T00:49:41.655Z,0.00
2022-11-05T00:50:41.646Z,0.00
2022-11-05T00:51:41.629Z,0.00
2022-11-05T00:52:41.634Z,0.00
2022-11-05T00:53:41.625Z,0.00
2022-11-05T00:54:41.597Z,0.00
2022-11-05T00:55:41.583Z,0.00
2022-11-05T00:56:41.577Z,0.00
2022-11-05T00:57:41.577Z,0.00
2022-11-05T00:58:41.564Z,0.00
2022-11-05T00:59:41.549Z,0.00
2022-11-05T01:00:41.530Z,0.00
2022-11-05T01:01:41.625Z,0.00
2022-11-05T01:02:41.674Z,0.00
2022-11-05T01:03:41.553Z,0.00
2022-11-05T01:04:41.486Z,0.00
2022-11-05T01:05:41.473Z,0.00
2022-11-05T01:06:41.463Z,0.00
2022-11-05T01:07:41.452Z,0.00
2022-11-05T01:08:41.471Z,0.00
2022-11-05T01:09:41.429Z,0.00
2022-11-05T01:10:41.452Z,0.00
2022-11-05T01:11:41.407Z,0.00
2022-11-05T01:12:41.398Z,0.00
2022-11-05T01:13:41.399Z,0.00
2022-11-05T01:14:41.375Z,0.00
2022-11-05T01:15:41.425Z,0.00
2022-11-05T01:16:41.365Z,0.00
2022-11-05T01:17:41.343Z,0.00
2022-11-05T01:18:41.346Z,0.00
2022-11-05T01:19:41.322Z,0.00
2022-11-05T01:20:41.310Z,0.00
2022-11-05T01:21:41.298Z,0.00
2022-11-05T01:22:41.303Z,0.00
2022-11-05T01:23:41.287Z,0.00
2022-11-05T01:24:41.282Z,0.00
2022-11-05T01:25:41.255Z,0.00
2022-11-05T01:26:41.243Z,0.00
2022-11-05T01:27:41.238Z,0.00
2022-11-05T01:28:41.357Z,0.00
2022-11-05T01:29:41.208Z,0.00
2022-11-05T01:30:41.220Z,0.00
2022-11-05T01:31:41.193Z,0.00
2022-11-05T01:32:41.186Z,0.00
2022-11-05T01:33:41.181Z,0.00
2022-11-05T01:34:41.157Z,0.00
2022-11-05T01:35:41.149Z,0.00
2022-11-05T01:36:41.137Z,0.00
2022-11-05T01:37:41.123Z,0.00
2022-11-05T01:38:41.124Z,0.00
2022-11-05T01:39:41.102Z,0.00
2022-11-05T01:40:41.113Z,0.00
2022-11-05T01:41:41.078Z,0.00
2022-11-05T01:42:41.071Z,0.00
2022-11-05T01:43:41.081Z,0.00
2022-11-05T01:44:41.054Z,0.00
2022-11-05T01:45:41.038Z,0.00
2022-11-05T01:46:41.033Z,0.00
2022-11-05T01:47:41.014Z,0.00
2022-11-05T01:48:41.023Z,0.00
2022-11-05T01:49:40.989Z,0.00
2022-11-05T01:50:40.984Z,0.00
2022-11-05T01:51:40.973Z,0.00
2022-11-05T01:52:40.965Z,0.00
2022-11-05T01:53:40.966Z,0.00
2022-11-05T01:54:40.938Z,0.00
2022-11-05T01:55:40.926Z,0.00
2022-11-05T01:56:40.929Z,0.00
2022-11-05T01:57:40.903Z,0.00
2022-11-05T01:58:40.908Z,0.00
2022-11-05T01:59:40.885Z,0.00
2022-11-05T02:00:40.884Z,0.00
2022-11-05T02:01:40.962Z,0.00
2022-11-05T02:02:41.030Z,0.00
2022-11-05T02:03:40.852Z,0.00
2022-11-05T02:04:40.831Z,0.00
2022-11-05T02:05:40.827Z,0.00
2022-11-05T02:06:40.811Z,0.00
2022-11-05T02:07:40.794Z,0.00
2022-11-05T02:08:40.838Z,0.00
2022-11-05T02:09:40.770Z,0.00
2022-11-05T02:10:40.830Z,0.00
2022-11-05T02:11:40.760Z,0.00
2022-11-05T02:12:40.793Z,0.00
2022-11-05T02:13:40.727Z,0.00
2022-11-05T02:14:40.725Z,0.00
2022-11-05T02:15:40.706Z,0.00
2022-11-05T02:16:40.715Z,0.00
2022-11-05T02:17:40.694Z,0.00
2022-11-05T02:18:40.672Z,0.00
2022-11-05T02:19:40.659Z,0.00
2022-11-05T02:20:40.654Z,0.00
2022-11-05T02:21:40.643Z,0.00
2022-11-05T02:22:40.628Z,0.00
2022-11-05T02:23:40.630Z,0.00
2022-11-05T02:24:40.606Z,0.00
2022-11-05T02:25:40.598Z,0.00
2022-11-05T02:26:40.584Z,0.00
2022-11-05T02:27:40.573Z,0.00
2022-11-05T02:28:40.596Z,0.00
2022-11-05T02:29:40.551Z,0.00
2022-11-05T02:30:40.549Z,0.00
2022-11-05T02:31:40.535Z,0.00
2022-11-05T02:32:40.543Z,0.00
2022-11-05T02:33:40.512Z,0.00
2022-11-05T02:34:40.494Z,0.00
2022-11-05T02:35:40.488Z,0.00
2022-11-05T02:36:40.480Z,0.00
2022-11-05T02:37:40.475Z,0.00
2022-11-05T02:38:40.450Z,0.00
2022-11-05T02:39:40.446Z,0.00
2022-11-05T02:40:40.429Z,0.00
2022-11-05T02:41:40.421Z,0.00
2022-11-05T02:42:40.417Z,0.00
2022-11-05T02:43:48.134Z,0.00
2022-11-05T02:44:40.386Z,0.00
2022-11-05T02:45:40.378Z,0.00
2022-11-05T02:46:40.362Z,0.00
2022-11-05T02:47:40.365Z,0.00
2022-11-05T02:48:40.341Z,0.00
2022-11-05T02:49:40.332Z,0.00
2022-11-05T02:50:40.320Z,0.00
2022-11-05T02:51:40.312Z,0.00
2022-11-05T02:52:40.311Z,0.00
2022-11-05T02:53:40.292Z,0.00
2022-11-05T02:54:40.277Z,0.00
2022-11-05T02:55:40.268Z,0.00
2022-11-05T02:56:40.261Z,0.00
2022-11-05T02:57:40.256Z,0.00
2022-11-05T02:58:40.235Z,0.00
2022-11-05T02:59:40.521Z,0.00
2022-11-05T03:00:40.215Z,0.00
2022-11-05T03:01:40.370Z,0.00
2022-11-05T03:02:40.352Z,0.00
2022-11-05T03:03:40.183Z,0.00
2022-11-05T03:04:40.169Z,0.00
2022-11-05T03:05:40.160Z,0.00
2022-11-05T03:06:40.146Z,0.00
2022-11-05T03:07:40.138Z,0.00
2022-11-05T03:08:40.138Z,0.00
2022-11-05T03:09:40.116Z,0.00
2022-11-05T03:10:40.104Z,0.00
2022-11-05T03:11:40.100Z,0.00
2022-11-05T03:12:40.083Z,0.00
2022-11-05T03:13:40.081Z,0.00
2022-11-05T03:14:40.060Z,0.00
2022-11-05T03:15:40.069Z,0.00
2022-11-05T03:16:40.039Z,0.00
2022-11-05T03:17:40.045Z,0.00
2022-11-05T03:18:40.021Z,0.00
2022-11-05T03:19:40.012Z,0.00
2022-11-05T03:20:40.001Z,0.00
2022-11-05T03:21:39.985Z,0.00
2022-11-05T03:22:39.982Z,0.00
2022-11-05T03:23:39.963Z,0.00
2022-11-05T03:24:39.952Z,0.00
2022-11-05T03:25:39.958Z,0.00
2022-11-05T03:26:39.929Z,0.00
2022-11-05T03:27:39.934Z,0.00
2022-11-05T03:28:39.908Z,0.00
2022-11-05T03:29:39.898Z,0.00
2022-11-05T03:30:39.890Z,0.00
2022-11-05T03:31:39.901Z,0.00
2022-11-05T03:32:39.873Z,0.00
2022-11-05T03:33:39.855Z,0.00
2022-11-05T03:34:39.846Z,0.00
2022-11-05T03:35:39.834Z,0.00
2022-11-05T03:36:39.868Z,0.00
2022-11-05T03:37:39.828Z,0.00
2022-11-05T03:38:39.805Z,0.00
2022-11-05T03:39:39.791Z,0.00
2022-11-05T03:40:39.780Z,0.00
2022-11-05T03:41:39.769Z,0.00
2022-11-05T03:42:39.770Z,0.00
2022-11-05T03:43:39.749Z,0.00
2022-11-05T03:44:39.735Z,0.00
2022-11-05T03:45:39.727Z,0.00
2022-11-05T03:46:39.714Z,0.00
2022-11-05T03:47:39.820Z,0.00
2022-11-05T03:48:39.783Z,0.00
2022-11-05T03:49:39.689Z,0.00
2022-11-05T03:50:41.416Z,0.00
2022-11-05T03:51:39.665Z,0.00
2022-11-05T03:52:39.663Z,0.00
2022-11-05T03:53:39.641Z,0.00
2022-11-05T03:54:39.630Z,0.00
2022-11-05T03:55:39.622Z,0.00
2022-11-05T03:56:39.607Z,0.00
2022-11-05T03:57:39.611Z,0.00
2022-11-05T03:58:39.585Z,0.00
2022-11-05T03:59:39.576Z,0.00
2022-11-05T04:00:39.564Z,0.00
2022-11-05T04:01:39.695Z,0.00
2022-11-05T04:02:39.728Z,0.00
2022-11-05T04:03:39.552Z,0.00
2022-11-05T04:04:39.520Z,0.00
2022-11-05T04:05:39.512Z,0.00
2022-11-05T04:06:39.498Z,0.00
2022-11-05T04:07:39.504Z,0.00
2022-11-05T04:08:39.477Z,0.00
2022-11-05T04:09:39.477Z,0.00
2022-11-05T04:10:39.454Z,0.00
2022-11-05T04:11:39.445Z,0.00
2022-11-05T04:12:39.446Z,0.00
2022-11-05T04:13:39.426Z,0.00
2022-11-05T04:14:39.413Z,0.00
2022-11-05T04:15:39.416Z,0.00
2022-11-05T04:16:39.390Z,0.00
2022-11-05T04:17:39.394Z,0.00
2022-11-05T04:18:39.368Z,0.00
2022-11-05T04:19:39.375Z,0.00
2022-11-05T04:20:39.347Z,0.00
2022-11-05T04:21:39.337Z,0.00
2022-11-05T04:22:39.336Z,0.00
2022-11-05T04:23:39.315Z,0.00
2022-11-05T04:24:39.304Z,0.00
2022-11-05T04:25:39.296Z,0.00
2022-11-05T04:26:39.282Z,0.00
2022-11-05T04:27:39.283Z,0.00
2022-11-05T04:28:39.266Z,0.00
2022-11-05T04:29:39.250Z,0.00
2022-11-05T04:30:39.237Z,0.00
2022-11-05T04:31:39.244Z,0.00
2022-11-05T04:32:39.216Z,0.00
2022-11-05T04:33:39.219Z,0.00
2022-11-05T04:34:39.196Z,0.00
2022-11-05T04:35:39.206Z,0.00
2022-11-05T04:36:39.178Z,0.00
2022-11-05T04:37:39.164Z,0.00
2022-11-05T04:38:39.160Z,0.00
2022-11-05T04:39:39.142Z,0.00
2022-11-05T04:40:39.128Z,0.00
2022-11-05T04:41:39.127Z,0.00
2022-11-05T04:42:39.106Z,0.00
2022-11-05T04:43:39.111Z,0.00
2022-11-05T04:44:39.087Z,0.00
2022-11-05T04:45:39.079Z,0.00
2022-11-05T04:46:39.069Z,0.00
2022-11-05T04:47:39.056Z,0.00
2022-11-05T04:48:39.051Z,0.00
2022-11-05T04:49:39.034Z,0.00
2022-11-05T04:50:39.020Z,0.00
2022-11-05T04:51:39.125Z,0.00
2022-11-05T04:52:39.005Z,0.00
2022-11-05T04:53:39.002Z,0.00
2022-11-05T04:54:38.978Z,0.00
2022-11-05T04:55:38.970Z,0.00
2022-11-05T04:56:38.958Z,0.00
2022-11-05T04:57:38.949Z,0.00
2022-11-05T04:58:38.944Z,0.00
2022-11-05T04:59:38.929Z,0.00
2022-11-05T05:00:38.985Z,0.00
2022-11-05T05:01:39.040Z,0.00
2022-11-05T05:02:38.891Z,0.00
2022-11-05T05:03:38.892Z,0.00
2022-11-05T05:04:38.872Z,0.00
2022-11-05T05:05:38.860Z,0.00
2022-11-05T05:06:38.850Z,0.00
2022-11-05T05:07:38.854Z,0.00
2022-11-05T05:08:38.842Z,0.00
2022-11-05T05:09:38.818Z,0.00
2022-11-05T05:10:38.812Z,0.00
2022-11-05T05:11:38.799Z,0.00
2022-11-05T05:12:38.787Z,0.00
2022-11-05T05:13:38.792Z,0.00
2022-11-05T05:14:38.776Z,0.00
2022-11-05T05:15:38.756Z,0.00
2022-11-05T05:16:38.743Z,0.00
2022-11-05T05:17:38.733Z,0.00
2022-11-05T05:18:43.535Z,0.00
2022-11-05T05:19:39.712Z,0.00
2022-11-05T05:20:38.699Z,0.00
2022-11-05T05:21:38.698Z,0.00
2022-11-05T05:22:38.679Z,0.00
2022-11-05T05:23:38.694Z,0.00
2022-11-05T05:24:38.659Z,0.00
2022-11-05T05:25:38.650Z,0.00
2022-11-05T05:26:38.637Z,0.00
2022-11-05T05:27:38.630Z,0.00
2022-11-05T05:28:38.625Z,0.00
2022-11-05T05:29:38.608Z,0.00
2022-11-05T05:30:38.596Z,0.00
2022-11-05T05:31:38.583Z,0.00
2022-11-05T05:32:38.572Z,0.00
2022-11-05T05:33:38.577Z,0.00
2022-11-05T05:34:38.549Z,0.00
2022-11-05T05:35:38.543Z,0.00
2022-11-05T05:36:38.531Z,0.00
2022-11-05T05:37:38.522Z,0.00
2022-11-05T05:38:38.520Z,0.00
2022-11-05T05:39:38.517Z,0.00
2022-11-05T05:40:38.489Z,0.00
2022-11-05T05:41:38.479Z,0.00
2022-11-05T05:42:42.839Z,0.00
2022-11-05T05:43:38.474Z,0.00
2022-11-05T05:44:38.450Z,0.00
2022-11-05T05:45:38.434Z,0.00
2022-11-05T05:46:38.422Z,0.00
2022-11-05T05:47:38.413Z,0.00
2022-11-05T05:48:38.413Z,0.00
2022-11-05T05:49:38.392Z,0.00
2022-11-05T05:50:38.382Z,0.00
2022-11-05T05:51:38.386Z,0.00
2022-11-05T05:52:38.366Z,0.00
2022-11-05T05:53:38.366Z,0.00
2022-11-05T05:54:42.487Z,0.00
2022-11-05T05:55:38.345Z,0.00
2022-11-05T05:56:38.316Z,0.00
2022-11-05T05:57:38.309Z,0.00
2022-11-05T05:58:38.323Z,0.00
2022-11-05T05:59:38.284Z,0.00
2022-11-05T06:00:38.273Z,0.00
2022-11-05T06:01:38.423Z,0.00
2022-11-05T06:02:38.383Z,0.00
2022-11-05T06:03:38.252Z,0.00
2022-11-05T06:04:38.232Z,0.00
2022-11-05T06:05:38.221Z,0.00
2022-11-05T06:06:38.211Z,0.00
2022-11-05T06:07:38.212Z,0.00
2022-11-05T06:08:38.197Z,0.00
2022-11-05T06:09:38.181Z,0.00
2022-11-05T06:10:38.306Z,0.00
2022-11-05T06:11:38.184Z,0.00
2022-11-05T06:12:38.156Z,0.00
2022-11-05T06:13:38.149Z,0.00
2022-11-05T06:14:38.123Z,0.00
2022-11-05T06:15:38.116Z,0.00
2022-11-05T06:16:38.111Z,5.62
2022-11-05T06:17:38.094Z,5.62
2022-11-05T06:18:38.106Z,5.62
2022-11-05T06:19:38.073Z,5.62
2022-11-05T06:20:38.062Z,5.62
2022-11-05T06:21:38.057Z,5.62
2022-11-05T06:22:38.058Z,5.62
2022-11-05T06:23:38.030Z,5.62
2022-11-05T06:24:38.024Z,5.62
2022-11-05T06:25:41.226Z,5.62
2022-11-05T06:26:37.997Z,5.62
2022-11-05T06:27:38.005Z,5.62
2022-11-05T06:28:38.011Z,11.25
2022-11-05T06:29:37.966Z,11.25
2022-11-05T06:30:37.952Z,11.25
2022-11-05T06:31:37.946Z,11.25
2022-11-05T06:32:37.932Z,11.25
2022-11-05T06:33:37.929Z,11.25
2022-11-05T06:34:37.912Z,11.25
2022-11-05T06:35:37.904Z,11.25
2022-11-05T06:36:37.886Z,11.25
2022-11-05T06:37:37.896Z,16.88
2022-11-05T06:38:37.872Z,16.88
2022-11-05T06:39:37.858Z,16.88
2022-11-05T06:40:37.846Z,16.88
2022-11-05T06:41:56.948Z,16.88
2022-11-05T06:42:38.831Z,16.88
2022-11-05T06:43:37.837Z,16.88
2022-11-05T06:44:37.808Z,16.88
2022-11-05T06:45:37.794Z,16.88
2022-11-05T06:46:37.782Z,22.50
2022-11-05T06:47:37.782Z,22.50
2022-11-05T06:48:37.763Z,22.50
2022-11-05T06:49:37.747Z,22.50
2022-11-05T06:50:37.739Z,22.50
2022-11-05T06:51:37.730Z,22.50
2022-11-05T06:52:41.017Z,28.12
2022-11-05T06:53:37.715Z,28.12
2022-11-05T06:54:37.699Z,28.12
2022-11-05T06:55:37.689Z,33.75
2022-11-05T06:56:37.677Z,33.75
2022-11-05T06:57:37.693Z,33.75
2022-11-05T06:58:37.662Z,33.75
2022-11-05T06:59:37.660Z,33.75
2022-11-05T07:00:37.689Z,39.38
2022-11-05T07:01:37.848Z,39.38
2022-11-05T07:02:37.621Z,39.38
2022-11-05T07:03:37.610Z,45.00
2022-11-05T07:04:37.591Z,45.00
2022-11-05T07:05:37.576Z,50.62
2022-11-05T07:06:37.567Z,50.62
2022-11-05T07:07:37.572Z,56.25
2022-11-05T07:08:37.553Z,56.25
2022-11-05T07:09:37.535Z,56.25
2022-11-05T07:10:37.526Z,56.25
2022-11-05T07:11:37.514Z,61.88
2022-11-05T07:12:37.519Z,61.88
2022-11-05T07:13:37.492Z,61.88
2022-11-05T07:14:37.490Z,67.50
2022-11-05T07:15:37.491Z,67.50
2022-11-05T07:16:37.465Z,73.12
2022-11-05T07:17:37.463Z,78.75
2022-11-05T07:18:37.441Z,78.75
2022-11-05T07:19:37.433Z,84.38
2022-11-05T07:20:37.419Z,90.00
2022-11-05T07:21:37.406Z,90.00
2022-11-05T07:22:37.410Z,101.25
2022-11-05T07:23:37.386Z,112.50
2022-11-05T07:24:37.376Z,112.50
2022-11-05T07:25:37.365Z,112.50
2022-11-05T07:26:37.357Z,118.12
2022-11-05T07:27:37.355Z,123.75
2022-11-05T07:28:37.334Z,129.38
2022-11-05T07:29:37.320Z,135.00
2022-11-05T07:30:37.323Z,140.62
2022-11-05T07:31:37.316Z,140.62
2022-11-05T07:32:37.302Z,146.25
2022-11-05T07:33:37.279Z,151.88
2022-11-05T07:34:37.270Z,151.88
2022-11-05T07:35:37.258Z,163.12
2022-11-05T07:36:37.255Z,168.75
2022-11-05T07:37:37.234Z,180.00
2022-11-05T07:38:37.252Z,196.88
2022-11-05T07:39:37.212Z,213.75
2022-11-05T07:40:37.201Z,247.50
2022-11-05T07:41:37.201Z,292.50
2022-11-05T07:42:37.181Z,292.50
2022-11-05T07:43:37.170Z,264.38
2022-11-05T07:44:37.159Z,315.00
2022-11-05T07:45:37.146Z,286.88
2022-11-05T07:46:37.153Z,309.38
2022-11-05T07:47:37.142Z,433.12
2022-11-05T07:48:37.122Z,376.88
2022-11-05T07:49:37.104Z,348.75
2022-11-05T07:50:37.093Z,360.00
2022-11-05T07:51:37.093Z,410.62
2022-11-05T07:52:37.076Z,618.75
2022-11-05T07:53:41.026Z,1080.00
2022-11-05T07:54:38.053Z,1091.25
2022-11-05T07:55:37.040Z,990.00
2022-11-05T07:56:37.039Z,821.25
2022-11-05T07:57:37.017Z,613.12
2022-11-05T07:58:37.006Z,427.50
2022-11-05T07:59:36.995Z,393.75
2022-11-05T08:00:37.079Z,421.88
2022-11-05T08:01:37.283Z,483.75
2022-11-05T08:02:37.320Z,461.25
2022-11-05T08:03:37.021Z,393.75
2022-11-05T08:04:36.942Z,365.62
2022-11-05T08:05:36.929Z,326.25
2022-11-05T08:06:36.937Z,343.12
2022-11-05T08:07:36.910Z,337.50
2022-11-05T08:08:36.904Z,348.75
2022-11-05T08:09:36.889Z,343.12
2022-11-05T08:10:36.877Z,371.25
2022-11-05T08:11:36.874Z,450.00
2022-11-05T08:12:36.855Z,483.75
2022-11-05T08:13:36.852Z,517.50
2022-11-05T08:14:36.837Z,450.00
2022-11-05T08:15:36.825Z,528.75
2022-11-05T08:16:36.831Z,511.88
2022-11-05T08:17:36.799Z,466.88
2022-11-05T08:18:36.790Z,568.12
2022-11-05T08:19:36.794Z,562.50
2022-11-05T08:20:36.769Z,534.38
2022-11-05T08:21:36.765Z,523.12
2022-11-05T08:22:36.748Z,821.25
2022-11-05T08:23:36.755Z,2250.00
2022-11-05T08:24:36.725Z,1918.12
2022-11-05T08:25:36.716Z,1372.50
2022-11-05T08:26:36.712Z,736.88
2022-11-05T08:27:36.690Z,596.25
2022-11-05T08:28:36.685Z,511.88
2022-11-05T08:29:36.669Z,472.50
2022-11-05T08:30:36.665Z,500.62
2022-11-05T08:31:36.658Z,478.12
2022-11-05T08:32:36.638Z,410.62
2022-11-05T08:33:36.624Z,354.38
2022-11-05T08:34:36.615Z,331.88
2022-11-05T08:35:36.633Z,326.25
2022-11-05T08:36:36.603Z,343.12
2022-11-05T08:37:36.580Z,331.88
2022-11-05T08:38:36.574Z,343.12
2022-11-05T08:39:36.562Z,331.88
2022-11-05T08:40:36.553Z,315.00
2022-11-05T08:41:36.569Z,320.62
2022-11-05T08:42:36.530Z,326.25
2022-11-05T08:43:44.212Z,354.38
2022-11-05T08:44:36.513Z,399.38
2022-11-05T08:45:38.075Z,438.75
2022-11-05T08:46:41.384Z,562.50
2022-11-05T08:47:37.472Z,765.00
2022-11-05T08:48:36.463Z,708.75
2022-11-05T08:49:36.456Z,1040.62
2022-11-05T08:50:36.443Z,1198.12
2022-11-05T08:51:36.461Z,1108.12
2022-11-05T08:52:36.422Z,1231.88
2022-11-05T08:53:36.409Z,1271.25
2022-11-05T08:54:36.398Z,1659.38
2022-11-05T08:55:36.386Z,2334.38
2022-11-05T08:56:36.391Z,2340.00
2022-11-05T08:57:36.364Z,2058.75
2022-11-05T08:58:36.356Z,1771.88
2022-11-05T08:59:36.356Z,1344.38
2022-11-05T09:00:36.367Z,1828.12
2022-11-05T09:01:36.479Z,2165.62
2022-11-05T09:02:36.357Z,2255.62
2022-11-05T09:03:36.300Z,2030.62
2022-11-05T09:04:36.292Z,1833.75
2022-11-05T09:05:36.279Z,1912.50
2022-11-05T09:06:36.285Z,1906.88
2022-11-05T09:07:36.276Z,1603.12
2022-11-05T09:08:36.250Z,1620.00
2022-11-05T09:09:36.243Z,1839.38
2022-11-05T09:10:36.256Z,1974.38
2022-11-05T09:12:05.309Z,2154.38
2022-11-05T09:12:37.205Z,2283.75
2022-11-05T09:13:36.191Z,2525.62
2022-11-05T09:14:36.182Z,2795.62
2022-11-05T09:15:36.186Z,3043.12
2022-11-05T09:16:36.188Z,3358.12
2022-11-05T09:17:36.147Z,3380.62
2022-11-05T09:18:36.140Z,3251.25
2022-11-05T09:19:39.784Z,3166.88
2022-11-05T09:20:36.129Z,3240.00
2022-11-05T09:21:36.105Z,3408.75
2022-11-05T09:22:42.068Z,3498.75
2022-11-05T09:23:37.098Z,3420.00
2022-11-05T09:24:36.076Z,3324.38
2022-11-05T09:25:36.074Z,3240.00
2022-11-05T09:26:36.061Z,3330.00
2022-11-05T09:27:36.042Z,3476.25
2022-11-05T09:28:36.032Z,3391.88
2022-11-05T09:29:36.022Z,3380.62
2022-11-05T09:30:36.028Z,3436.88
2022-11-05T09:31:36.000Z,3251.25
2022-11-05T09:32:35.990Z,3189.38
2022-11-05T09:33:35.978Z,3183.75
2022-11-05T09:34:35.972Z,3121.88
2022-11-05T09:35:35.980Z,3240.00
2022-11-05T09:36:35.947Z,3240.00
2022-11-05T09:37:35.938Z,3256.88
2022-11-05T09:38:35.928Z,3183.75
2022-11-05T09:39:35.952Z,3121.88
2022-11-05T09:40:35.932Z,3043.12
2022-11-05T09:41:35.897Z,3003.75
2022-11-05T09:42:35.889Z,3166.88
2022-11-05T09:43:35.875Z,3352.50
2022-11-05T09:44:35.866Z,3307.50
2022-11-05T09:45:35.870Z,3228.75
2022-11-05T09:46:35.853Z,3240.00
2022-11-05T09:47:35.836Z,3301.88
2022-11-05T09:48:35.826Z,3251.25
2022-11-05T09:49:35.818Z,3133.12
2022-11-05T09:50:35.822Z,3048.75
2022-11-05T09:51:35.794Z,3228.75
2022-11-05T09:52:35.786Z,3481.88
2022-11-05T09:53:35.776Z,3560.62
2022-11-05T09:54:35.766Z,3622.50
2022-11-05T09:55:35.782Z,3661.88
2022-11-05T09:56:35.747Z,3690.00
2022-11-05T09:57:35.737Z,3526.88
2022-11-05T09:58:35.726Z,3465.00
2022-11-05T09:59:35.715Z,3605.62
2022-11-05T10:00:35.737Z,3757.50
2022-11-05T10:01:35.836Z,3650.62
2022-11-05T10:02:36.000Z,3369.38
2022-11-05T10:03:35.675Z,3341.25
2022-11-05T10:04:35.668Z,3453.75
2022-11-05T10:05:35.786Z,3571.88
2022-11-05T10:06:35.649Z,3639.38
2022-11-05T10:07:35.638Z,3639.38
2022-11-05T10:08:35.628Z,3588.75
2022-11-05T10:09:35.623Z,3600.00
2022-11-05T10:10:40.574Z,3701.25
2022-11-05T10:11:36.616Z,3549.38
2022-11-05T10:12:35.590Z,3493.12
2022-11-05T10:13:35.581Z,3526.88
2022-11-05T10:14:35.570Z,3403.12
2022-11-05T10:15:35.583Z,2902.50
2022-11-05T10:16:35.553Z,1203.75
2022-11-05T10:17:39.055Z,371.25
2022-11-05T10:18:35.542Z,337.50
2022-11-05T10:19:35.522Z,320.62
2022-11-05T10:20:35.527Z,309.38
2022-11-05T10:22:04.329Z,303.75
2022-11-05T10:22:36.499Z,298.12
2022-11-05T10:23:35.483Z,292.50
2022-11-05T10:24:35.480Z,281.25
2022-11-05T10:25:35.475Z,275.62
2022-11-05T10:26:35.451Z,275.62
2022-11-05T10:27:35.455Z,264.38
2022-11-05T10:28:35.447Z,258.75
2022-11-05T10:29:35.425Z,253.12
2022-11-05T10:30:35.423Z,247.50
2022-11-05T10:31:35.749Z,241.88
2022-11-05T10:32:35.389Z,236.25
2022-11-05T10:33:35.376Z,236.25
2022-11-05T10:34:35.366Z,236.25
2022-11-05T10:35:35.369Z,230.62
2022-11-05T10:36:35.344Z,225.00
2022-11-05T10:37:40.482Z,225.00
2022-11-05T10:38:36.324Z,219.38
2022-11-05T10:39:35.316Z,219.38
2022-11-05T10:40:35.314Z,213.75
2022-11-05T10:41:35.287Z,208.12
2022-11-05T10:42:35.295Z,208.12
2022-11-05T10:43:35.423Z,202.50
2022-11-05T10:44:35.260Z,202.50
2022-11-05T10:45:35.272Z,202.50
2022-11-05T10:46:35.242Z,196.88
2022-11-05T10:47:35.226Z,196.88
2022-11-05T10:48:39.340Z,196.88
2022-11-05T10:49:36.203Z,196.88
2022-11-05T10:50:35.209Z,191.25
2022-11-05T10:51:35.194Z,191.25
2022-11-05T10:52:35.172Z,191.25
2022-11-05T10:53:35.165Z,191.25
2022-11-05T10:54:35.155Z,191.25
2022-11-05T10:55:35.159Z,185.62
2022-11-05T10:56:35.133Z,185.62
2022-11-05T10:57:35.117Z,180.00
2022-11-05T10:58:35.113Z,180.00
2022-11-05T10:59:35.127Z,180.00
2022-11-05T11:00:35.099Z,180.00
2022-11-05T11:01:35.289Z,174.38
2022-11-05T11:02:35.121Z,174.38
2022-11-05T11:03:35.054Z,174.38
2022-11-05T11:04:38.102Z,174.38
2022-11-05T11:05:35.055Z,168.75
2022-11-05T11:06:35.022Z,168.75
2022-11-05T11:07:35.009Z,168.75
2022-11-05T11:08:35.051Z,163.12
2022-11-05T11:09:34.987Z,163.12
2022-11-05T11:10:35.012Z,163.12
2022-11-05T11:11:34.970Z,163.12
2022-11-05T11:12:40.557Z,163.12
2022-11-05T11:13:35.945Z,163.12
2022-11-05T11:14:34.946Z,163.12
2022-11-05T11:15:34.937Z,157.50
2022-11-05T11:16:34.912Z,163.12
2022-11-05T11:17:34.911Z,157.50
2022-11-05T11:18:39.886Z,157.50
2022-11-05T11:19:35.900Z,157.50
2022-11-05T11:20:34.867Z,151.88
2022-11-05T11:21:34.859Z,151.88
2022-11-05T11:22:34.848Z,151.88
2022-11-05T11:23:34.838Z,151.88
2022-11-05T11:24:34.837Z,151.88
2022-11-05T11:25:34.816Z,146.25
2022-11-05T11:26:34.803Z,146.25
2022-11-05T11:27:34.795Z,151.88
2022-11-05T11:28:34.784Z,151.88
2022-11-05T11:29:34.807Z,151.88
2022-11-05T11:30:34.760Z,151.88
2022-11-05T11:31:34.781Z,151.88
2022-11-05T11:32:34.736Z,151.88
2022-11-05T11:33:34.728Z,146.25
2022-11-05T11:34:34.735Z,151.88
2022-11-05T11:35:34.707Z,151.88
2022-11-05T11:36:34.701Z,151.88
2022-11-05T11:37:34.715Z,151.88
2022-11-05T11:38:34.672Z,151.88
2022-11-05T11:39:34.679Z,146.25
2022-11-05T11:40:34.659Z,180.00
2022-11-05T11:41:34.644Z,163.12
2022-11-05T11:42:34.630Z,157.50
2022-11-05T11:43:34.623Z,185.62
2022-11-05T11:44:34.625Z,180.00
2022-11-05T11:45:34.603Z,151.88
2022-11-05T11:46:34.588Z,140.62
2022-11-05T11:47:34.593Z,146.25
2022-11-05T11:48:34.564Z,151.88
2022-11-05T11:49:34.566Z,140.62
2022-11-05T11:50:34.543Z,146.25
2022-11-05T11:51:34.535Z,135.00
2022-11-05T11:52:34.529Z,140.62
2022-11-05T11:53:34.514Z,146.25
2022-11-05T11:54:34.539Z,163.12
2022-11-05T11:55:34.497Z,163.12
2022-11-05T11:56:34.481Z,151.88
2022-11-05T11:57:34.469Z,146.25
2022-11-05T11:58:34.459Z,140.62
2022-11-05T12:00:02.381Z,146.25
2022-11-05T12:00:35.478Z,146.25
2022-11-05T12:01:34.480Z,151.88
2022-11-05T12:02:34.453Z,146.25
2022-11-05T12:03:34.427Z,140.62
2022-11-05T12:04:34.438Z,135.00
2022-11-05T12:05:34.390Z,157.50
2022-11-05T12:06:34.371Z,157.50
2022-11-05T12:07:34.361Z,157.50
2022-11-05T12:08:34.351Z,151.88
2022-11-05T12:09:34.355Z,151.88
2022-11-05T12:10:34.329Z,140.62
2022-11-05T12:11:34.319Z,140.62
2022-11-05T12:12:34.308Z,151.88
2022-11-05T12:13:34.296Z,140.62
2022-11-05T12:14:34.298Z,135.00
2022-11-05T12:15:34.279Z,135.00
2022-11-05T12:16:34.261Z,129.38
2022-11-05T12:17:34.256Z,135.00
2022-11-05T12:18:34.240Z,129.38
2022-11-05T12:19:34.262Z,135.00
2022-11-05T12:20:34.226Z,123.75
2022-11-05T12:21:51.576Z,129.38
2022-11-05T12:22:35.202Z,140.62
2022-11-05T12:23:34.192Z,151.88
2022-11-05T12:24:34.189Z,140.62
2022-11-05T12:25:34.184Z,135.00
2022-11-05T12:26:34.153Z,123.75
2022-11-05T12:27:34.157Z,140.62
2022-11-05T12:28:36.145Z,140.62
2022-11-05T12:29:35.932Z,140.62
2022-11-05T12:30:34.109Z,146.25
2022-11-05T12:31:34.115Z,151.88
2022-11-05T12:32:34.154Z,146.25
2022-11-05T12:33:34.078Z,140.62
2022-11-05T12:34:34.080Z,135.00
2022-11-05T12:35:34.093Z,129.38
2022-11-05T12:36:34.056Z,123.75
2022-11-05T12:37:34.037Z,112.50
2022-11-05T12:38:34.025Z,118.12
2022-11-05T12:39:34.028Z,123.75
2022-11-05T12:40:34.000Z,112.50
2022-11-05T12:41:33.993Z,106.88
2022-11-05T12:42:33.981Z,118.12
2022-11-05T12:43:33.970Z,106.88
2022-11-05T12:44:33.972Z,101.25
2022-11-05T12:45:33.947Z,106.88
2022-11-05T12:46:33.936Z,101.25
2022-11-05T12:47:33.927Z,101.25
2022-11-05T12:48:37.025Z,106.88
2022-11-05T12:49:33.921Z,101.25
2022-11-05T12:50:33.892Z,95.62
2022-11-05T12:51:33.905Z,95.62